createdAt,value
2023-05-09T00:00:57.319Z,12.33
2023-05-09T00:03:31.029Z,13.83
2023-05-09T00:06:02.607Z,13.53
2023-05-09T00:08:33.510Z,12.57
2023-05-09T00:11:04.810Z,13.70
2023-05-09T00:13:35.959Z,14.23
2023-05-09T00:16:07.301Z,13.70
2023-05-09T00:18:43.884Z,14.33
2023-05-09T00:21:14.768Z,13.40
2023-05-09T00:23:48.536Z,13.23
2023-05-09T00:26:19.792Z,12.70
2023-05-09T00:28:50.708Z,12.40
2023-05-09T00:31:21.665Z,13.40
2023-05-09T00:33:57.144Z,11.77
2023-05-09T00:36:28.273Z,15.07
2023-05-09T00:38:59.251Z,14.60
2023-05-09T00:41:30.201Z,14.40
2023-05-09T00:44:01.122Z,13.40
2023-05-09T00:46:33.362Z,15.00
2023-05-09T00:49:08.264Z,13.37
2023-05-09T00:51:40.085Z,13.23
2023-05-09T00:54:12.165Z,15.03
2023-05-09T00:56:43.232Z,15.03
2023-05-09T00:59:16.274Z,14.53
2023-05-09T01:01:48.628Z,15.13
2023-05-09T01:04:22.533Z,14.70
2023-05-09T01:07:01.036Z,14.60
2023-05-09T01:09:39.804Z,14.30
2023-05-09T01:12:19.347Z,13.73
2023-05-09T01:15:00.047Z,14.03
2023-05-09T01:17:39.524Z,15.47
2023-05-09T01:20:21.983Z,14.93
2023-05-09T01:23:03.606Z,14.73
2023-05-09T01:25:47.523Z,15.57
2023-05-09T01:28:32.451Z,15.53
2023-05-09T01:31:07.455Z,14.57
2023-05-09T01:33:41.759Z,16.37
2023-05-09T01:36:18.677Z,15.93
2023-05-09T01:38:53.001Z,14.80
2023-05-09T01:41:25.931Z,16.70
2023-05-09T01:44:00.242Z,16.00
2023-05-09T01:46:33.802Z,13.77
2023-05-09T01:49:06.371Z,14.43
2023-05-09T01:51:40.728Z,14.47
2023-05-09T01:54:13.193Z,15.57
2023-05-09T01:56:46.016Z,15.20
2023-05-09T01:59:18.897Z,13.80
2023-05-09T02:01:55.179Z,14.33
2023-05-09T02:04:27.530Z,14.63
2023-05-09T02:07:00.195Z,15.70
2023-05-09T02:09:31.177Z,15.47
2023-05-09T02:12:02.268Z,14.33
2023-05-09T02:14:33.256Z,13.97
2023-05-09T02:17:09.623Z,14.87
2023-05-09T02:19:40.558Z,16.37
2023-05-09T02:22:11.956Z,16.80
2023-05-09T02:24:43.785Z,15.70
2023-05-09T02:27:15.589Z,16.47
2023-05-09T02:29:50.396Z,16.20
2023-05-09T02:32:28.353Z,15.47
2023-05-09T02:35:00.635Z,17.13
2023-05-09T02:37:32.388Z,17.47
2023-05-09T02:40:05.562Z,16.30
2023-05-09T02:42:36.737Z,16.63
2023-05-09T02:45:09.941Z,16.53
2023-05-09T02:47:43.462Z,17.60
2023-05-09T02:50:15.228Z,14.73
2023-05-09T02:52:46.404Z,17.30
2023-05-09T02:55:17.499Z,16.13
2023-05-09T02:57:51.920Z,17.50
2023-05-09T03:00:28.110Z,19.40
2023-05-09T03:03:02.829Z,18.77
2023-05-09T03:05:33.908Z,18.67
2023-05-09T03:08:05.243Z,19.97
2023-05-09T03:10:36.064Z,19.10
2023-05-09T03:13:07.049Z,18.50
2023-05-09T03:15:38.232Z,17.27
2023-05-09T03:18:12.008Z,19.77
2023-05-09T03:20:42.954Z,17.60
2023-05-09T03:23:13.863Z,17.20
2023-05-09T03:25:45.516Z,18.20
2023-05-09T03:28:16.506Z,18.20
2023-05-09T03:30:47.376Z,20.77
2023-05-09T03:33:21.070Z,16.83
2023-05-09T03:35:52.277Z,16.93
2023-05-09T03:38:24.447Z,17.70
2023-05-09T03:40:56.696Z,18.00
2023-05-09T03:43:27.620Z,17.57
2023-05-09T03:45:58.625Z,18.03
2023-05-09T03:48:32.187Z,16.93
2023-05-09T03:51:03.158Z,19.50
2023-05-09T03:53:34.190Z,20.40
2023-05-09T03:56:05.165Z,18.00
2023-05-09T03:58:36.188Z,17.97
2023-05-09T04:01:07.219Z,18.97
2023-05-09T04:03:41.413Z,18.83
2023-05-09T04:06:12.783Z,16.80
2023-05-09T04:08:44.622Z,19.00
2023-05-09T04:11:15.629Z,20.50
2023-05-09T04:13:46.548Z,20.10
2023-05-09T04:16:17.503Z,20.47
2023-05-09T04:18:51.657Z,18.60
2023-05-09T04:21:22.497Z,21.53
2023-05-09T04:23:53.577Z,26.03
2023-05-09T04:26:24.826Z,22.20
2023-05-09T04:28:55.793Z,21.17
2023-05-09T04:31:26.991Z,22.10
2023-05-09T04:34:00.659Z,22.30
2023-05-09T04:36:31.970Z,22.27
2023-05-09T04:39:05.286Z,22.10
2023-05-09T04:41:36.269Z,22.40
2023-05-09T04:44:08.121Z,22.30
2023-05-09T04:46:39.098Z,23.40
2023-05-09T04:49:12.590Z,22.20
2023-05-09T04:51:43.463Z,24.27
2023-05-09T04:54:14.470Z,24.23
2023-05-09T04:56:45.356Z,24.90
2023-05-09T04:59:16.536Z,22.40
2023-05-09T05:01:47.670Z,21.90
2023-05-09T05:04:21.285Z,23.23
2023-05-09T05:06:52.236Z,21.47
2023-05-09T05:09:23.416Z,20.87
2023-05-09T05:12:01.875Z,22.10
2023-05-09T05:14:34.042Z,21.80
2023-05-09T05:17:04.983Z,21.47
2023-05-09T05:19:38.560Z,19.17
2023-05-09T05:22:09.630Z,22.47
2023-05-09T05:24:40.589Z,23.70
2023-05-09T05:27:14.435Z,22.33
2023-05-09T05:29:45.372Z,23.40
2023-05-09T05:32:18.407Z,23.30
2023-05-09T05:34:52.055Z,19.87
2023-05-09T05:37:22.996Z,21.63
2023-05-09T05:39:54.535Z,23.73
2023-05-09T05:42:25.624Z,20.80
2023-05-09T05:44:56.700Z,21.63
2023-05-09T05:47:29.310Z,22.77
2023-05-09T05:50:03.481Z,23.00
2023-05-09T05:52:34.575Z,23.33
2023-05-09T05:55:05.647Z,22.23
2023-05-09T05:57:37.853Z,24.57
2023-05-09T06:00:11.745Z,22.50
2023-05-09T06:02:44.909Z,22.00
2023-05-09T06:05:18.609Z,22.43
2023-05-09T06:07:49.560Z,21.30
2023-05-09T06:10:20.584Z,23.50
2023-05-09T06:12:53.929Z,22.87
2023-05-09T06:15:24.949Z,22.57
2023-05-09T06:17:59.268Z,21.17
2023-05-09T06:20:33.261Z,22.37
2023-05-09T06:23:04.188Z,20.60
2023-05-09T06:25:35.296Z,22.30
2023-05-09T06:28:06.518Z,22.83
2023-05-09T06:30:37.519Z,22.00
2023-05-09T06:33:08.956Z,21.63
2023-05-09T06:35:42.718Z,21.30
2023-05-09T06:38:13.702Z,20.20
2023-05-09T06:40:44.726Z,19.23
2023-05-09T06:43:15.679Z,21.70
2023-05-09T06:45:46.680Z,19.30
2023-05-09T06:48:17.554Z,18.60
2023-05-09T06:50:51.582Z,19.27
2023-05-09T06:53:22.698Z,19.70
2023-05-09T06:55:53.721Z,19.43
2023-05-09T06:58:24.723Z,18.00
2023-05-09T07:00:56.169Z,18.37
2023-05-09T07:03:27.053Z,19.03
2023-05-09T07:06:00.535Z,18.37
2023-05-09T07:08:32.599Z,17.13
2023-05-09T07:11:03.587Z,16.07
2023-05-09T07:13:34.504Z,17.70
2023-05-09T07:16:05.564Z,15.73
2023-05-09T07:18:36.454Z,17.13
2023-05-09T07:21:10.252Z,15.47
2023-05-09T07:23:41.128Z,16.53
2023-05-09T07:26:14.879Z,15.77
2023-05-09T07:28:45.990Z,14.17
2023-05-09T07:31:16.878Z,13.97
2023-05-09T07:33:47.971Z,15.10
2023-05-09T07:36:21.781Z,14.67
2023-05-09T07:38:53.688Z,14.00
2023-05-09T07:41:25.122Z,14.50
2023-05-09T07:43:56.176Z,13.47
2023-05-09T07:46:27.641Z,15.03
2023-05-09T07:49:01.669Z,13.57
2023-05-09T07:51:35.196Z,13.63
2023-05-09T07:54:10.215Z,13.83
2023-05-09T07:56:41.381Z,14.10
2023-05-09T07:59:12.410Z,12.70
2023-05-09T08:01:43.360Z,15.27
2023-05-09T08:04:14.313Z,14.10
2023-05-09T08:06:50.201Z,14.37
2023-05-09T08:09:23.956Z,12.97
2023-05-09T08:11:57.006Z,14.17
2023-05-09T08:14:27.986Z,14.77
2023-05-09T08:16:58.991Z,14.27
2023-05-09T08:19:29.916Z,13.00
2023-05-09T08:22:03.552Z,12.70
2023-05-09T08:24:35.747Z,12.93
2023-05-09T08:27:07.234Z,11.90
2023-05-09T08:29:38.703Z,12.20
2023-05-09T08:32:09.900Z,12.07
2023-05-09T08:34:40.957Z,11.80
2023-05-09T08:37:15.409Z,11.87
2023-05-09T08:39:46.705Z,11.00
2023-05-09T08:42:24.802Z,11.63
2023-05-09T08:44:57.197Z,11.37
2023-05-09T08:47:29.587Z,10.80
2023-05-09T08:50:00.654Z,10.67
2023-05-09T08:52:35.759Z,10.97
2023-05-09T08:55:07.614Z,10.33
2023-05-09T08:57:38.706Z,11.00
2023-05-09T09:00:12.257Z,11.40
2023-05-09T09:02:44.302Z,10.63
2023-05-09T09:05:34.261Z,11.60
2023-05-09T09:08:11.125Z,9.17
2023-05-09T09:10:47.382Z,9.33
2023-05-09T09:13:20.032Z,9.17
2023-05-09T09:15:54.636Z,9.07
2023-05-09T09:18:31.165Z,8.77
2023-05-09T09:21:08.425Z,9.47
2023-05-09T09:23:48.444Z,9.70
2023-05-09T09:26:22.402Z,9.40
2023-05-09T09:28:58.102Z,8.67
2023-05-09T09:31:35.822Z,7.80
2023-05-09T09:34:06.922Z,7.60
2023-05-09T09:36:38.040Z,7.90
2023-05-09T09:39:16.712Z,7.10
2023-05-09T09:41:47.758Z,8.27
2023-05-09T09:44:20.229Z,7.83
2023-05-09T09:46:53.040Z,6.50
2023-05-09T09:49:25.141Z,6.70
2023-05-09T09:51:57.706Z,6.20
2023-05-09T09:54:32.162Z,5.87
2023-05-09T09:57:03.301Z,5.53
2023-05-09T09:59:34.309Z,6.30
2023-05-09T10:02:09.944Z,5.83
2023-05-09T10:04:48.683Z,5.97
2023-05-09T10:07:28.300Z,5.63
2023-05-09T10:10:18.636Z,6.10
2023-05-09T10:13:02.178Z,6.40
2023-05-09T10:15:49.297Z,5.47
2023-05-09T10:18:51.534Z,5.60
2023-05-09T10:21:47.975Z,5.03
2023-05-09T10:24:21.019Z,5.17
2023-05-09T10:27:09.116Z,4.60
2023-05-09T10:29:47.502Z,4.80
2023-05-09T10:32:35.785Z,5.63
2023-05-09T10:35:09.764Z,6.33
2023-05-09T10:37:43.286Z,4.40
2023-05-09T10:40:15.776Z,4.03
2023-05-09T10:42:52.193Z,4.90
2023-05-09T10:45:24.789Z,6.70
2023-05-09T10:47:57.715Z,4.43
2023-05-09T10:50:29.413Z,5.63
2023-05-09T10:53:14.350Z,4.50
2023-05-09T10:55:53.822Z,3.20
2023-05-09T10:58:30.134Z,4.30
2023-05-09T11:01:04.615Z,3.70
2023-05-09T11:03:57.186Z,4.67
2023-05-09T11:06:49.579Z,4.97
2023-05-09T11:09:33.559Z,3.90
2023-05-09T11:12:12.221Z,4.67
2023-05-09T11:14:51.815Z,3.70
2023-05-09T11:17:32.926Z,4.20
2023-05-09T11:20:06.938Z,3.70
2023-05-09T11:22:43.064Z,3.60
2023-05-09T11:25:17.097Z,3.50
2023-05-09T11:27:53.455Z,3.70
2023-05-09T11:30:39.011Z,6.57
2023-05-09T11:33:23.953Z,4.33
2023-05-09T11:36:20.521Z,3.93
2023-05-09T11:38:52.007Z,4.23
2023-05-09T11:41:23.060Z,5.03
2023-05-09T11:43:56.012Z,3.77
2023-05-09T11:46:29.981Z,3.57
2023-05-09T11:49:02.172Z,3.23
2023-05-09T11:51:33.100Z,3.20
2023-05-09T11:54:07.693Z,3.03
2023-05-09T11:56:40.882Z,3.87
2023-05-09T11:59:14.731Z,5.00
2023-05-09T12:01:48.589Z,3.63
2023-05-09T12:04:19.609Z,3.73
2023-05-09T12:06:51.246Z,4.10
2023-05-09T12:09:22.485Z,3.80
2023-05-09T12:11:53.456Z,3.70
2023-05-09T12:14:31.588Z,3.77
2023-05-09T12:17:07.874Z,7.00
2023-05-09T12:19:39.561Z,4.57
2023-05-09T12:22:10.778Z,4.27
2023-05-09T12:24:41.800Z,3.77
2023-05-09T12:27:13.118Z,5.40
2023-05-09T12:29:46.222Z,3.57
2023-05-09T12:32:20.844Z,4.00
2023-05-09T12:34:52.245Z,4.03
2023-05-09T12:37:23.590Z,3.83
2023-05-09T12:40:04.914Z,3.63
2023-05-09T12:42:36.782Z,3.67
2023-05-09T12:45:11.452Z,4.63
2023-05-09T12:47:45.704Z,4.10
2023-05-09T12:50:16.777Z,4.40
2023-05-09T12:53:02.930Z,3.80
2023-05-09T12:55:41.481Z,4.63
2023-05-09T12:58:12.540Z,4.53
2023-05-09T13:00:47.014Z,3.73
2023-05-09T13:03:30.780Z,4.60
2023-05-09T13:06:04.010Z,4.37
2023-05-09T13:08:34.981Z,5.60
2023-05-09T13:11:15.664Z,4.80
2023-05-09T13:13:47.297Z,4.00
2023-05-09T13:16:18.427Z,4.53
2023-05-09T13:18:52.116Z,4.30
2023-05-09T13:21:23.071Z,4.37
2023-05-09T13:23:54.533Z,3.60
2023-05-09T13:26:27.120Z,4.37
2023-05-09T13:29:01.264Z,4.50
2023-05-09T13:31:32.242Z,4.87
2023-05-09T13:34:05.907Z,4.50
2023-05-09T13:36:36.774Z,4.07
2023-05-09T13:39:14.830Z,4.63
2023-05-09T13:41:45.706Z,4.00
2023-05-09T13:44:16.684Z,4.10
2023-05-09T13:46:48.826Z,4.30
2023-05-09T13:49:22.398Z,4.40
2023-05-09T13:51:57.695Z,3.80
2023-05-09T13:54:30.276Z,4.50
2023-05-09T13:57:01.533Z,5.67
2023-05-09T13:59:32.677Z,6.20
2023-05-09T14:02:04.191Z,6.47
2023-05-09T14:04:43.077Z,7.70
2023-05-09T14:07:15.087Z,6.73
2023-05-09T14:09:49.110Z,6.97
2023-05-09T14:12:23.323Z,7.40
2023-05-09T14:14:54.439Z,6.80
2023-05-09T14:17:25.629Z,7.07
2023-05-09T14:19:59.210Z,8.20
2023-05-09T14:22:30.338Z,7.97
2023-05-09T14:25:01.991Z,8.37
2023-05-09T14:27:37.407Z,8.50
2023-05-09T14:30:10.890Z,8.40
2023-05-09T14:32:41.851Z,8.33
2023-05-09T14:35:15.731Z,8.70
2023-05-09T14:37:46.657Z,7.60
2023-05-09T14:40:17.900Z,8.27
2023-05-09T14:42:50.896Z,10.00
2023-05-09T14:45:28.122Z,10.47
2023-05-09T14:47:59.078Z,10.53
2023-05-09T14:50:33.528Z,11.80
2023-05-09T14:53:12.925Z,10.80
2023-05-09T14:55:44.007Z,13.73
2023-05-09T14:58:16.301Z,13.20
2023-05-09T15:00:47.562Z,12.60
2023-05-09T15:03:21.976Z,12.43
2023-05-09T15:05:55.584Z,14.97
2023-05-09T15:08:26.843Z,13.13
2023-05-09T15:10:58.045Z,12.63
2023-05-09T15:13:29.003Z,12.97
2023-05-09T15:16:00.057Z,12.73
2023-05-09T15:18:31.008Z,13.60
2023-05-09T15:21:04.704Z,13.10
2023-05-09T15:23:39.510Z,12.97
2023-05-09T15:26:12.473Z,13.20
2023-05-09T15:28:44.405Z,11.80
2023-05-09T15:31:15.384Z,11.77
2023-05-09T15:33:47.841Z,11.90
2023-05-09T15:36:21.514Z,13.57
2023-05-09T15:38:52.929Z,13.57
2023-05-09T15:41:24.039Z,12.87
2023-05-09T15:43:55.551Z,11.50
2023-05-09T15:46:26.800Z,10.10
2023-05-09T15:49:00.420Z,10.20
2023-05-09T15:51:34.194Z,13.80
2023-05-09T15:54:05.167Z,13.53
2023-05-09T15:56:36.116Z,17.20
2023-05-09T15:59:07.461Z,15.27
2023-05-09T16:01:38.483Z,18.30
2023-05-09T16:04:09.610Z,13.13
2023-05-09T16:06:43.324Z,25.33
2023-05-09T16:09:15.559Z,24.27
2023-05-09T16:11:46.750Z,31.13
2023-05-09T16:14:17.700Z,19.53
2023-05-09T16:16:50.739Z,24.87
2023-05-09T16:19:21.840Z,28.23
2023-05-09T16:21:55.431Z,29.97
2023-05-09T16:24:26.329Z,35.17
2023-05-09T16:26:57.219Z,32.13
2023-05-09T16:29:28.864Z,33.80
2023-05-09T16:31:59.731Z,32.03
2023-05-09T16:34:30.916Z,29.40
2023-05-09T16:37:04.624Z,29.23
2023-05-09T16:39:35.554Z,30.83
2023-05-09T16:42:06.702Z,26.27
2023-05-09T16:44:37.708Z,24.67
2023-05-09T16:47:08.704Z,28.90
2023-05-09T16:49:39.691Z,29.03
2023-05-09T16:52:13.463Z,29.57
2023-05-09T16:54:44.461Z,26.00
2023-05-09T16:57:16.843Z,25.03
2023-05-09T16:59:48.045Z,26.37
2023-05-09T17:02:21.738Z,24.37
2023-05-09T17:04:52.764Z,23.83
2023-05-09T17:07:26.340Z,23.50
2023-05-09T17:09:57.236Z,22.53
2023-05-09T17:12:28.420Z,19.97
2023-05-09T17:14:59.289Z,16.50
2023-05-09T17:17:32.595Z,19.50
2023-05-09T17:20:04.633Z,18.97
2023-05-09T17:22:38.164Z,18.23
2023-05-09T17:25:10.267Z,21.33
2023-05-09T17:27:42.823Z,19.80
2023-05-09T17:30:14.803Z,17.70
2023-05-09T17:32:45.925Z,18.47
2023-05-09T17:35:19.468Z,20.60
2023-05-09T17:37:52.962Z,23.47
2023-05-09T17:40:24.185Z,22.13
2023-05-09T17:42:55.235Z,21.00
2023-05-09T17:45:26.991Z,20.77
2023-05-09T17:47:58.681Z,20.87
2023-05-09T17:50:29.844Z,21.30
2023-05-09T17:53:03.387Z,20.00
2023-05-09T17:55:34.439Z,20.73
2023-05-09T17:58:05.319Z,20.20
2023-05-09T18:00:36.928Z,22.83
2023-05-09T18:03:07.964Z,20.13
2023-05-09T18:05:38.891Z,23.20
2023-05-09T18:08:12.388Z,24.00
2023-05-09T18:10:44.170Z,23.87
2023-05-09T18:13:15.169Z,25.97
2023-05-09T18:15:46.190Z,24.30
2023-05-09T18:18:17.607Z,25.10
2023-05-09T18:20:49.157Z,26.00
2023-05-09T18:23:25.002Z,27.57
2023-05-09T18:25:56.854Z,25.87
2023-05-09T18:28:29.042Z,26.20
2023-05-09T18:31:01.508Z,27.90
2023-05-09T18:33:39.273Z,27.43
2023-05-09T18:36:15.247Z,25.77
2023-05-09T18:38:48.849Z,22.60
2023-05-09T18:41:20.130Z,27.43
2023-05-09T18:43:51.156Z,25.30
2023-05-09T18:46:22.734Z,23.97
2023-05-09T18:48:54.540Z,25.77
2023-05-09T18:51:25.727Z,23.13
2023-05-09T18:53:59.237Z,22.90
2023-05-09T18:56:30.136Z,24.03
2023-05-09T18:59:01.010Z,27.67
2023-05-09T19:01:32.185Z,24.80
2023-05-09T19:04:04.547Z,31.90
2023-05-09T19:06:35.636Z,21.97
2023-05-09T19:09:09.108Z,22.57
2023-05-09T19:11:40.043Z,23.80
2023-05-09T19:14:10.965Z,22.10
2023-05-09T19:16:42.020Z,21.90
2023-05-09T19:19:13.437Z,21.33
2023-05-09T19:21:44.471Z,23.80
2023-05-09T19:24:18.132Z,21.83
2023-05-09T19:26:49.096Z,25.77
2023-05-09T19:29:19.977Z,12.67
2023-05-09T19:31:53.355Z,10.57
2023-05-09T19:34:24.439Z,7.00
2023-05-09T19:36:55.494Z,7.50
2023-05-09T19:39:29.779Z,7.77
2023-05-09T19:42:00.902Z,7.13
2023-05-09T19:44:31.806Z,6.10
2023-05-09T19:47:05.390Z,6.00
2023-05-09T19:49:36.338Z,7.40
2023-05-09T19:52:07.809Z,6.73
2023-05-09T19:54:41.388Z,7.37
2023-05-09T19:57:13.937Z,6.20
2023-05-09T19:59:44.995Z,6.23
2023-05-09T20:02:16.049Z,5.90
2023-05-09T20:04:50.051Z,6.40
2023-05-09T20:07:21.278Z,7.00
2023-05-09T20:09:57.858Z,8.40
2023-05-09T20:12:30.196Z,7.33
2023-05-09T20:15:01.589Z,9.87
2023-05-09T20:17:35.403Z,8.57
2023-05-09T20:20:07.087Z,6.90
2023-05-09T20:22:38.037Z,8.57
2023-05-09T20:27:58.251Z,10.43
2023-05-09T20:30:29.378Z,7.93
2023-05-09T20:33:01.343Z,8.30
2023-05-09T20:35:32.360Z,10.63
2023-05-09T20:38:04.818Z,7.73
2023-05-09T20:40:38.665Z,7.07
2023-05-09T20:43:09.636Z,6.57
2023-05-09T20:45:40.544Z,6.87
2023-05-09T20:48:12.505Z,7.67
2023-05-09T20:50:43.409Z,9.90
2023-05-09T20:53:14.559Z,9.77
2023-05-09T20:55:50.375Z,9.70
2023-05-09T20:58:21.651Z,10.70
2023-05-09T21:00:52.888Z,7.77
2023-05-09T21:03:23.734Z,8.13
2023-05-09T21:05:54.745Z,14.30
2023-05-09T21:08:26.007Z,11.40
2023-05-09T21:10:59.484Z,10.70
2023-05-09T21:13:30.625Z,14.20
2023-05-09T21:16:01.584Z,11.70
2023-05-09T21:18:32.601Z,12.97
2023-05-09T21:21:04.966Z,16.80
2023-05-09T21:23:35.778Z,10.47
2023-05-09T21:26:09.207Z,10.10
2023-05-09T21:28:40.102Z,10.10
2023-05-09T21:31:11.497Z,12.23
2023-05-09T21:33:42.543Z,9.00
2023-05-09T21:36:16.451Z,12.00
2023-05-09T21:38:47.325Z,9.47
2023-05-09T21:41:22.011Z,10.80
2023-05-09T21:43:52.905Z,11.10
2023-05-09T21:46:23.830Z,12.20
2023-05-09T21:48:55.390Z,11.70
2023-05-09T21:52:06.682Z,9.80
2023-05-09T21:55:47.169Z,11.37
2023-05-09T21:58:20.689Z,11.03
2023-05-09T22:00:51.747Z,12.93
2023-05-09T22:03:23.512Z,10.80
2023-05-09T22:05:54.525Z,9.50
2023-05-09T22:08:25.938Z,7.73
2023-05-09T22:10:56.843Z,6.20
2023-05-09T22:13:30.372Z,4.87
2023-05-09T22:16:01.642Z,6.37
2023-05-09T22:18:32.596Z,3.53
2023-05-09T22:21:03.514Z,4.37
2023-05-09T22:23:34.413Z,6.10
2023-05-09T22:26:05.470Z,5.90
2023-05-09T22:28:39.764Z,6.43
2023-05-09T22:31:10.806Z,5.60
2023-05-09T22:33:41.746Z,5.67
2023-05-09T22:36:12.841Z,6.03
2023-05-09T22:38:43.982Z,6.50
2023-05-09T22:41:15.119Z,6.93
2023-05-09T22:43:48.552Z,7.33
2023-05-09T22:46:19.526Z,7.57
2023-05-09T22:48:50.435Z,7.20
2023-05-09T22:51:21.316Z,7.13
2023-05-09T22:53:52.471Z,7.87
2023-05-09T22:56:23.603Z,6.43
2023-05-09T22:58:57.426Z,6.00
2023-05-09T23:01:29.842Z,8.43
2023-05-09T23:04:00.847Z,5.13
2023-05-09T23:06:31.803Z,5.30
2023-05-09T23:09:02.681Z,5.10
2023-05-09T23:11:33.992Z,7.23
2023-05-09T23:14:07.574Z,4.40
2023-05-09T23:16:38.605Z,5.53
2023-05-09T23:19:09.665Z,3.90
2023-05-09T23:21:40.643Z,4.20
2023-05-09T23:24:11.937Z,3.53
2023-05-09T23:26:43.134Z,3.00
2023-05-09T23:29:16.645Z,2.67
2023-05-09T23:31:47.704Z,3.00
2023-05-09T23:34:19.049Z,3.70
2023-05-09T23:36:49.933Z,2.30
2023-05-09T23:39:21.011Z,3.40
2023-05-09T23:41:51.916Z,2.60
2023-05-09T23:44:37.489Z,2.20
2023-05-09T23:47:08.733Z,2.27
2023-05-09T23:49:39.821Z,2.57
2023-05-09T23:52:10.756Z,2.33
2023-05-09T23:54:41.725Z,2.67
2023-05-09T23:57:12.613Z,3.40
2023-05-09T23:59:46.742Z,2.17
